Airport ICAO


23:09 UTC

10°C


An affordable passengers' Moving Map for your aircraft. Made for the iPad and the iPhone
More information here

LFMC Le Cannet


Le Luc FRANCE   


METAR LFMC 182300Z AUTO 29010KT 9999 ////// 10/05 Q1014 0h09min





NOTAMS

OPEN